createdAt,value
2018-06-16T00:01:31.272Z,22.80
2018-06-16T00:03:59.722Z,24.67
2018-06-16T00:06:28.303Z,28.43
2018-06-16T00:08:56.444Z,25.93
2018-06-16T00:11:24.946Z,28.03
2018-06-16T00:13:53.386Z,24.87
2018-06-16T00:16:21.999Z,28.57
2018-06-16T00:18:50.479Z,25.80
2018-06-16T00:21:18.949Z,26.03
2018-06-16T00:23:47.446Z,25.30
2018-06-16T00:26:15.975Z,28.83
2018-06-16T00:28:44.434Z,28.20
2018-06-16T00:31:12.877Z,29.37
2018-06-16T00:33:41.347Z,29.17
2018-06-16T00:36:09.842Z,25.43
2018-06-16T00:38:38.289Z,25.23
2018-06-16T00:41:06.844Z,28.03
2018-06-16T00:43:35.301Z,24.67
2018-06-16T00:46:03.772Z,27.57
2018-06-16T00:48:32.278Z,28.53
2018-06-16T00:51:00.764Z,24.87
2018-06-16T00:53:29.207Z,27.33
2018-06-16T00:55:57.739Z,26.80
2018-06-16T00:58:26.263Z,23.27
2018-06-16T01:00:54.995Z,22.93
2018-06-16T01:03:23.460Z,27.30
2018-06-16T01:05:51.893Z,28.60
2018-06-16T01:08:20.423Z,26.07
2018-06-16T01:10:48.896Z,22.87
2018-06-16T01:13:17.344Z,27.53
2018-06-16T01:15:45.807Z,24.97
2018-06-16T01:18:14.271Z,32.63
2018-06-16T01:20:42.724Z,21.90
2018-06-16T01:23:11.225Z,24.10
2018-06-16T01:25:39.745Z,26.87
2018-06-16T01:28:08.201Z,24.83
2018-06-16T01:30:36.717Z,29.37
2018-06-16T01:33:05.293Z,25.80
2018-06-16T01:35:33.757Z,27.33
2018-06-16T01:38:02.245Z,23.23
2018-06-16T01:40:30.709Z,22.53
2018-06-16T01:42:59.287Z,22.07
2018-06-16T01:45:27.734Z,26.03
2018-06-16T01:47:56.193Z,25.37
2018-06-16T01:50:24.629Z,27.43
2018-06-16T01:52:53.109Z,24.67
2018-06-16T01:55:21.572Z,23.83
2018-06-16T01:57:50.037Z,23.50
2018-06-16T02:00:18.505Z,21.20
2018-06-16T02:02:46.969Z,19.73
2018-06-16T02:05:15.469Z,20.97
2018-06-16T02:07:43.901Z,20.57
2018-06-16T02:10:12.361Z,21.47
2018-06-16T02:12:40.822Z,25.37
2018-06-16T02:15:09.271Z,21.97
2018-06-16T02:17:37.852Z,23.47
2018-06-16T02:20:06.305Z,22.53
2018-06-16T02:22:34.792Z,19.10
2018-06-16T02:25:03.024Z,22.60
2018-06-16T02:27:31.501Z,19.53
2018-06-16T02:29:59.947Z,19.90
2018-06-16T02:32:28.385Z,17.70
2018-06-16T02:34:56.835Z,23.23
2018-06-16T02:37:25.268Z,20.33
2018-06-16T02:39:54.215Z,21.87
2018-06-16T02:42:22.657Z,19.20
2018-06-16T02:44:51.138Z,23.83
2018-06-16T02:47:19.597Z,18.90
2018-06-16T02:49:48.042Z,17.47
2018-06-16T02:52:16.578Z,16.97
2018-06-16T02:54:45.052Z,17.57
2018-06-16T02:57:13.483Z,19.97
2018-06-16T02:59:41.957Z,23.17
2018-06-16T03:02:10.551Z,23.00
2018-06-16T03:04:39.120Z,18.23
2018-06-16T03:07:08.125Z,20.67
2018-06-16T03:09:36.694Z,18.77
2018-06-16T03:12:05.172Z,20.10
2018-06-16T03:14:33.770Z,19.53
2018-06-16T03:17:03.686Z,18.23
2018-06-16T03:19:32.179Z,19.43
2018-06-16T03:22:00.934Z,21.97
2018-06-16T03:24:29.084Z,23.87
2018-06-16T03:26:57.558Z,18.80
2018-06-16T03:29:26.005Z,17.70
2018-06-16T03:31:54.535Z,22.00
2018-06-16T03:34:23.258Z,18.97
2018-06-16T03:36:51.739Z,18.27
2018-06-16T03:39:20.300Z,18.60
2018-06-16T03:41:48.748Z,19.83
2018-06-16T03:44:17.168Z,20.10
2018-06-16T03:46:45.704Z,24.50
2018-06-16T03:49:14.176Z,17.50
2018-06-16T03:51:42.630Z,20.13
2018-06-16T03:54:11.099Z,21.17
2018-06-16T03:56:39.550Z,20.67
2018-06-16T03:59:08.176Z,18.20
2018-06-16T04:01:36.745Z,20.00
2018-06-16T04:04:05.206Z,23.80
2018-06-16T04:06:33.729Z,18.17
2018-06-16T04:09:02.264Z,18.97
2018-06-16T04:11:30.859Z,22.90
2018-06-16T04:13:59.345Z,18.47
2018-06-16T04:16:27.856Z,18.70
2018-06-16T04:18:56.342Z,20.50
2018-06-16T04:21:24.782Z,24.33
2018-06-16T04:23:53.247Z,18.93
2018-06-16T04:26:21.717Z,22.47
2018-06-16T04:28:50.256Z,16.57
2018-06-16T04:31:18.764Z,22.10
2018-06-16T04:33:47.309Z,20.27
2018-06-16T04:36:15.459Z,16.13
2018-06-16T04:38:44.385Z,21.00
2018-06-16T04:41:12.978Z,21.67
2018-06-16T04:43:41.502Z,17.63
2018-06-16T04:46:09.970Z,20.90
2018-06-16T04:48:38.431Z,25.67
2018-06-16T04:51:07.152Z,20.30
2018-06-16T04:53:35.719Z,20.83
2018-06-16T04:56:04.217Z,19.97
2018-06-16T04:58:32.688Z,19.17
2018-06-16T05:01:02.080Z,19.67
2018-06-16T05:03:30.517Z,18.60
2018-06-16T05:05:58.964Z,20.67
2018-06-16T05:08:27.457Z,18.07
2018-06-16T05:10:55.966Z,19.40
2018-06-16T05:13:24.443Z,18.97
2018-06-16T05:15:52.921Z,21.13
2018-06-16T05:18:21.392Z,17.00
2018-06-16T05:20:49.891Z,18.20
2018-06-16T05:23:18.513Z,15.60
2018-06-16T05:25:47.010Z,16.80
2018-06-16T05:28:15.439Z,18.83
2018-06-16T05:30:43.901Z,17.23
2018-06-16T05:33:12.517Z,19.40
2018-06-16T05:35:41.095Z,18.93
2018-06-16T05:38:09.581Z,18.40
2018-06-16T05:40:38.049Z,16.63
2018-06-16T05:43:06.569Z,19.23
2018-06-16T05:45:35.229Z,13.43
2018-06-16T05:48:03.821Z,14.23
2018-06-16T05:50:32.286Z,18.67
2018-06-16T05:53:00.889Z,14.50
2018-06-16T05:55:29.337Z,15.87
2018-06-16T05:57:57.814Z,14.13
2018-06-16T06:00:26.408Z,13.97
2018-06-16T06:02:54.962Z,12.13
2018-06-16T06:05:30.092Z,14.07
2018-06-16T06:07:58.958Z,14.40
2018-06-16T06:10:27.463Z,15.33
2018-06-16T06:12:55.999Z,13.17
2018-06-16T06:15:24.857Z,14.03
2018-06-16T06:17:53.420Z,14.97
2018-06-16T06:20:21.958Z,14.50
2018-06-16T06:22:51.833Z,12.83
2018-06-16T06:25:20.266Z,12.53
2018-06-16T06:27:48.724Z,13.47
2018-06-16T06:30:17.202Z,12.77
2018-06-16T06:32:46.004Z,7.87
2018-06-16T06:35:14.502Z,10.83
2018-06-16T06:37:42.954Z,11.40
2018-06-16T06:40:11.405Z,9.87
2018-06-16T06:42:39.868Z,10.80
2018-06-16T06:45:08.437Z,7.60
2018-06-16T06:47:36.640Z,9.13
2018-06-16T06:50:05.174Z,7.50
2018-06-16T06:52:33.634Z,7.27
2018-06-16T06:55:02.103Z,9.00
2018-06-16T06:57:30.649Z,6.47
2018-06-16T06:59:59.109Z,6.83
2018-06-16T07:02:27.604Z,8.83
2018-06-16T07:04:56.670Z,8.97
2018-06-16T07:07:25.200Z,7.90
2018-06-16T07:09:53.692Z,5.87
2018-06-16T07:12:22.232Z,8.10
2018-06-16T07:14:50.752Z,7.33
2018-06-16T07:17:19.194Z,6.27
2018-06-16T07:19:48.070Z,8.17
2018-06-16T07:22:16.598Z,11.53
2018-06-16T07:24:45.550Z,8.13
2018-06-16T07:27:14.081Z,7.57
2018-06-16T07:29:42.500Z,7.77
2018-06-16T07:32:10.982Z,6.40
2018-06-16T07:34:39.448Z,8.23
2018-06-16T07:37:07.998Z,7.23
2018-06-16T07:39:36.185Z,9.47
2018-06-16T07:42:04.765Z,8.00
2018-06-16T07:44:33.333Z,8.53
2018-06-16T07:47:01.794Z,7.87
2018-06-16T07:49:30.418Z,8.20
2018-06-16T07:51:58.916Z,9.57
2018-06-16T07:54:27.411Z,7.07
2018-06-16T07:56:55.857Z,8.13
2018-06-16T07:59:24.353Z,8.23
2018-06-16T08:01:52.846Z,7.43
2018-06-16T08:04:21.303Z,10.00
2018-06-16T08:06:49.802Z,6.87
2018-06-16T08:09:18.277Z,5.83
2018-06-16T08:11:46.766Z,8.13
2018-06-16T08:14:15.246Z,7.10
2018-06-16T08:16:43.785Z,10.77
2018-06-16T08:19:12.357Z,10.13
2018-06-16T08:21:41.043Z,8.17
2018-06-16T08:24:09.600Z,7.63
2018-06-16T08:26:38.208Z,9.90
2018-06-16T08:29:06.690Z,11.47
2018-06-16T08:31:35.389Z,7.90
2018-06-16T08:34:04.110Z,6.77
2018-06-16T08:36:32.326Z,8.07
2018-06-16T08:39:00.910Z,13.97
2018-06-16T08:41:29.926Z,12.40
2018-06-16T08:43:58.482Z,8.80
2018-06-16T08:46:27.188Z,9.90
2018-06-16T08:48:55.757Z,10.93
2018-06-16T08:51:24.520Z,9.07
2018-06-16T08:53:53.171Z,10.30
2018-06-16T08:56:21.931Z,7.97
2018-06-16T08:58:56.365Z,11.57
2018-06-16T09:01:26.075Z,10.17
2018-06-16T09:03:55.097Z,12.80
2018-06-16T09:06:32.994Z,12.60
2018-06-16T09:09:01.572Z,10.20
2018-06-16T09:11:30.129Z,10.67
2018-06-16T09:13:58.900Z,10.30
2018-06-16T09:16:27.442Z,11.07
2018-06-16T09:18:55.923Z,7.93
2018-06-16T09:21:24.460Z,10.17
2018-06-16T09:23:53.146Z,10.30
2018-06-16T09:26:21.676Z,10.07
2018-06-16T09:29:35.899Z,13.57
2018-06-16T09:35:33.800Z,11.10
2018-06-16T09:38:33.456Z,10.73
2018-06-16T09:41:05.609Z,15.00
2018-06-16T09:48:44.722Z,11.40
2018-06-16T09:51:13.364Z,10.87
2018-06-16T09:55:18.734Z,16.20
2018-06-16T09:57:48.625Z,12.43
2018-06-16T10:03:43.339Z,10.50
2018-06-16T10:10:49.108Z,10.13
2018-06-16T10:13:17.600Z,12.43
2018-06-16T10:15:46.064Z,8.03
2018-06-16T10:18:14.544Z,9.83
2018-06-16T10:20:43.100Z,12.97
2018-06-16T10:23:13.498Z,8.13
2018-06-16T10:25:42.961Z,8.37
2018-06-16T10:31:05.854Z,9.33
2018-06-16T10:33:56.333Z,5.40
2018-06-16T10:36:33.730Z,10.90
2018-06-16T10:42:20.420Z,9.23
2018-06-16T10:45:00.616Z,6.13
2018-06-16T10:47:29.744Z,8.13
2018-06-16T10:53:10.698Z,7.50
2018-06-16T10:55:39.452Z,6.70
2018-06-16T10:58:07.965Z,8.67
2018-06-16T11:00:36.466Z,6.17
2018-06-16T11:03:05.020Z,5.93
2018-06-16T11:05:36.288Z,7.23
2018-06-16T11:08:12.086Z,5.20
2018-06-16T11:10:41.501Z,5.10
2018-06-16T11:13:15.995Z,12.03
2018-06-16T11:15:44.477Z,7.27
2018-06-16T11:18:12.998Z,7.77
2018-06-16T11:20:41.574Z,9.23
2018-06-16T11:23:13.850Z,5.03
2018-06-16T11:25:53.872Z,6.97
2018-06-16T11:28:25.324Z,6.80
2018-06-16T11:31:03.155Z,6.90
2018-06-16T11:33:32.524Z,6.77
2018-06-16T11:36:04.710Z,6.53
2018-06-16T11:39:19.370Z,7.37
2018-06-16T11:41:47.893Z,6.90
2018-06-16T11:47:12.173Z,7.93
2018-06-16T11:56:18.411Z,7.20
2018-06-16T11:58:53.799Z,6.13
2018-06-16T12:01:22.273Z,6.70
2018-06-16T12:03:50.791Z,8.37
2018-06-16T12:06:19.506Z,7.63
2018-06-16T12:26:39.154Z,3.80
2018-06-16T12:29:08.275Z,7.37
2018-06-16T12:36:01.343Z,10.00
2018-06-16T12:41:38.422Z,6.17
2018-06-16T12:55:37.296Z,5.80
2018-06-16T12:58:05.750Z,5.17
2018-06-16T13:00:34.214Z,7.60
2018-06-16T13:05:59.130Z,7.10
2018-06-16T13:15:15.628Z,5.33
2018-06-16T13:26:11.642Z,4.00
2018-06-16T13:40:23.839Z,5.37
2018-06-16T13:48:15.505Z,6.23
2018-06-16T14:10:24.640Z,8.23
2018-06-16T14:16:14.190Z,8.60
2018-06-16T14:18:48.127Z,6.97
2018-06-16T14:21:16.626Z,7.77
2018-06-16T14:23:45.096Z,7.03
2018-06-16T14:31:32.128Z,4.73
2018-06-16T14:34:00.603Z,8.87
2018-06-16T14:51:10.849Z,8.27
2018-06-16T14:53:39.313Z,9.60
2018-06-16T14:56:07.783Z,10.27
2018-06-16T15:23:00.793Z,7.97
2018-06-16T15:25:49.024Z,6.53
2018-06-16T15:28:17.525Z,8.17
2018-06-16T15:31:57.147Z,9.80
2018-06-16T15:34:25.669Z,9.83
2018-06-16T15:36:54.135Z,7.87
2018-06-16T16:02:10.100Z,8.43
2018-06-16T16:04:38.568Z,5.57
2018-06-16T16:07:06.994Z,9.07
2018-06-16T16:23:38.230Z,5.70
2018-06-16T16:29:09.139Z,6.43
2018-06-16T16:31:54.484Z,5.53
2018-06-16T16:34:22.992Z,6.23
2018-06-16T16:36:51.536Z,6.37
2018-06-16T16:39:20.018Z,5.40
2018-06-16T16:41:49.151Z,5.60
2018-06-16T16:44:42.652Z,5.57
2018-06-16T16:55:54.232Z,6.47
2018-06-16T16:58:22.902Z,7.33
2018-06-16T17:00:51.413Z,4.53
2018-06-16T17:03:19.871Z,7.60
2018-06-16T17:05:48.351Z,4.70
2018-06-16T17:08:21.065Z,4.53
2018-06-16T17:13:53.319Z,3.40
2018-06-16T17:16:21.778Z,4.10
2018-06-16T17:18:50.253Z,6.37
2018-06-16T17:21:18.720Z,4.37
2018-06-16T17:23:47.188Z,6.87
2018-06-16T17:26:15.690Z,6.90
2018-06-16T17:28:44.201Z,3.93
2018-06-16T17:35:22.067Z,5.47
2018-06-16T17:37:59.108Z,4.80
2018-06-16T17:40:27.778Z,5.00
2018-06-16T17:43:00.522Z,5.63
2018-06-16T17:45:30.861Z,6.47
2018-06-16T17:47:59.486Z,5.50
2018-06-16T17:55:36.495Z,10.30
2018-06-16T18:10:46.634Z,6.00
2018-06-16T18:13:23.307Z,6.90
2018-06-16T18:15:52.652Z,4.63
2018-06-16T18:18:46.996Z,4.33
2018-06-16T18:21:15.559Z,5.80
2018-06-16T18:23:44.072Z,4.93
2018-06-16T18:26:12.555Z,3.30
2018-06-16T18:28:41.067Z,6.30
2018-06-16T18:31:22.217Z,3.70
2018-06-16T18:33:55.658Z,3.53
2018-06-16T18:36:44.352Z,3.60
2018-06-16T18:39:12.992Z,6.00
2018-06-16T18:41:41.517Z,3.77
2018-06-16T18:44:09.994Z,5.80
2018-06-16T18:46:38.449Z,6.97
2018-06-16T18:49:06.929Z,4.30
2018-06-16T18:55:06.160Z,4.33
2018-06-16T18:57:34.737Z,5.23
2018-06-16T19:00:03.267Z,7.30
2018-06-16T19:02:31.756Z,4.00
2018-06-16T19:09:12.293Z,4.23
2018-06-16T19:11:49.416Z,3.50
2018-06-16T19:14:19.925Z,3.47
2018-06-16T19:16:56.188Z,4.70
2018-06-16T19:19:29.606Z,8.93
2018-06-16T19:22:11.256Z,4.17
2018-06-16T19:24:41.043Z,7.83
2018-06-16T19:27:09.311Z,3.50
2018-06-16T19:29:37.943Z,4.80
2018-06-16T19:32:06.895Z,5.97
2018-06-16T19:34:35.826Z,5.13
2018-06-16T19:37:04.681Z,3.73
2018-06-16T19:39:33.244Z,4.83
2018-06-16T19:42:01.778Z,3.70
2018-06-16T19:44:30.351Z,4.63
2018-06-16T19:46:58.849Z,4.70
2018-06-16T19:49:27.340Z,4.47
2018-06-16T19:51:55.827Z,6.03
2018-06-16T19:54:24.298Z,6.27
2018-06-16T19:56:52.804Z,3.83
2018-06-16T19:59:21.288Z,6.17
2018-06-16T20:01:49.899Z,5.90
2018-06-16T20:04:18.074Z,4.77
2018-06-16T20:06:46.583Z,5.50
2018-06-16T20:09:15.276Z,4.60
2018-06-16T20:11:43.758Z,6.93
2018-06-16T20:14:12.344Z,6.53
2018-06-16T20:16:40.784Z,5.90
2018-06-16T20:19:09.243Z,5.90
2018-06-16T20:21:37.696Z,6.10
2018-06-16T20:24:06.240Z,3.00
2018-06-16T20:26:34.716Z,6.67
2018-06-16T20:29:03.184Z,5.20
2018-06-16T20:31:31.640Z,4.70
2018-06-16T20:34:00.111Z,6.70
2018-06-16T20:36:28.607Z,4.53
2018-06-16T20:38:57.169Z,3.70
2018-06-16T20:41:25.720Z,7.97
2018-06-16T20:43:53.928Z,5.17
2018-06-16T20:46:23.048Z,8.27
2018-06-16T20:48:51.629Z,5.43
2018-06-16T20:51:20.142Z,4.27
2018-06-16T20:53:48.609Z,4.83
2018-06-16T20:56:17.120Z,5.13
2018-06-16T20:58:45.598Z,6.50
2018-06-16T21:01:14.271Z,4.90
2018-06-16T21:03:42.774Z,4.53
2018-06-16T21:06:11.470Z,4.43
2018-06-16T21:08:39.635Z,5.83
2018-06-16T21:11:08.226Z,4.60
2018-06-16T21:13:36.698Z,3.93
2018-06-16T21:16:05.249Z,4.27
2018-06-16T21:18:33.768Z,3.30
2018-06-16T21:21:02.366Z,5.50
2018-06-16T21:23:30.947Z,5.70
2018-06-16T21:25:59.455Z,5.30
2018-06-16T21:28:27.947Z,5.60
2018-06-16T21:30:56.413Z,5.87
2018-06-16T21:33:24.855Z,4.87
2018-06-16T21:35:53.345Z,5.47
2018-06-16T21:38:21.825Z,4.87
2018-06-16T21:40:50.443Z,3.63
2018-06-16T21:43:19.021Z,4.53
2018-06-16T21:45:47.719Z,4.23
2018-06-16T21:48:16.301Z,5.70
2018-06-16T21:50:44.734Z,6.80
2018-06-16T21:53:13.266Z,4.80
2018-06-16T21:55:41.739Z,4.63
2018-06-16T21:58:10.304Z,4.73
2018-06-16T22:00:38.467Z,5.13
2018-06-16T22:03:07.694Z,3.00
2018-06-16T22:05:36.285Z,5.33
2018-06-16T22:08:10.191Z,4.27
2018-06-16T22:10:38.642Z,4.10
2018-06-16T22:13:07.221Z,4.70
2018-06-16T22:15:35.375Z,4.37
2018-06-16T22:18:04.015Z,3.80
2018-06-16T22:20:32.589Z,5.97
2018-06-16T22:23:01.293Z,6.80
2018-06-16T22:25:29.790Z,7.30
2018-06-16T22:27:58.249Z,5.07
2018-06-16T22:30:26.701Z,3.17
2018-06-16T22:32:55.325Z,5.40
2018-06-16T22:35:23.832Z,7.80
2018-06-16T22:37:52.599Z,5.97
2018-06-16T22:40:21.109Z,6.57
2018-06-16T22:42:49.690Z,7.30
2018-06-16T22:45:18.255Z,5.13
2018-06-16T22:47:46.817Z,8.10
2018-06-16T22:50:15.285Z,4.20
2018-06-16T22:52:43.814Z,3.53
2018-06-16T22:55:12.377Z,4.87
2018-06-16T22:57:41.066Z,5.57
2018-06-16T23:00:09.660Z,6.93
2018-06-16T23:02:38.199Z,4.80
2018-06-16T23:05:06.661Z,5.03
2018-06-16T23:07:35.223Z,5.00
2018-06-16T23:10:03.809Z,7.03
2018-06-16T23:12:32.357Z,3.83
2018-06-16T23:15:00.838Z,5.80
2018-06-16T23:17:29.301Z,5.60
2018-06-16T23:19:57.434Z,7.10
2018-06-16T23:22:25.902Z,7.73
2018-06-16T23:24:54.853Z,4.00
2018-06-16T23:27:23.308Z,5.57
2018-06-16T23:29:51.769Z,4.10
2018-06-16T23:32:20.304Z,4.03
2018-06-16T23:34:48.742Z,5.40
2018-06-16T23:37:17.224Z,7.53
2018-06-16T23:39:45.640Z,5.80
2018-06-16T23:42:14.161Z,5.67
2018-06-16T23:44:42.592Z,7.53
2018-06-16T23:47:11.636Z,4.10
2018-06-16T23:49:40.083Z,7.33
2018-06-16T23:52:08.566Z,3.87
2018-06-16T23:54:37.139Z,5.87
2018-06-16T23:57:05.616Z,6.10
2018-06-16T23:59:33.802Z,3.53
